sensor_id;sensor_type;location;lat;lon;timestamp;pressure;altitude;pressure_sealevel;temperature;humidity
82041;BME280;71612;44.776;20.472;2023-09-07T00:00:29;100415.94;;;28.19;38.53
82041;BME280;71612;44.776;20.472;2023-09-07T00:02:55;100414.03;;;28.19;38.27
82041;BME280;71612;44.776;20.472;2023-09-07T00:05:20;100407.91;;;28.14;38.53
82041;BME280;71612;44.776;20.472;2023-09-07T00:07:46;100402.44;;;28.14;38.08
82041;BME280;71612;44.776;20.472;2023-09-07T00:10:11;100398.75;;;28.10;38.54
82041;BME280;71612;44.776;20.472;2023-09-07T00:12:38;100396.63;;;28.07;38.59
82041;BME280;71612;44.776;20.472;2023-09-07T00:15:05;100405.66;;;28.16;38.74
82041;BME280;71612;44.776;20.472;2023-09-07T00:17:31;100399.53;;;28.10;38.31
82041;BME280;71612;44.776;20.472;2023-09-07T00:19:57;100412.72;;;28.17;38.34
82041;BME280;71612;44.776;20.472;2023-09-07T00:22:23;100403.06;;;28.11;38.40
82041;BME280;71612;44.776;20.472;2023-09-07T00:24:51;100397.94;;;28.09;38.62
82041;BME280;71612;44.776;20.472;2023-09-07T00:27:16;100404.03;;;28.15;38.34
82041;BME280;71612;44.776;20.472;2023-09-07T00:29:41;100408.72;;;28.14;38.77
82041;BME280;71612;44.776;20.472;2023-09-07T00:32:07;100414.22;;;28.14;38.41
82041;BME280;71612;44.776;20.472;2023-09-07T00:34:33;100393.56;;;28.08;38.13
82041;BME280;71612;44.776;20.472;2023-09-07T00:36:59;100377.47;;;27.98;38.51
82041;BME280;71612;44.776;20.472;2023-09-07T00:39:25;100404.69;;;28.12;38.59
82041;BME280;71612;44.776;20.472;2023-09-07T00:41:51;100391.97;;;28.07;38.58
82041;BME280;71612;44.776;20.472;2023-09-07T00:44:16;100399.53;;;28.10;38.50
82041;BME280;71612;44.776;20.472;2023-09-07T00:46:42;100394.22;;;28.05;38.53
82041;BME280;71612;44.776;20.472;2023-09-07T00:49:11;100399.69;;;28.14;38.71
82041;BME280;71612;44.776;20.472;2023-09-07T00:51:36;100387.59;;;28.06;38.70
82041;BME280;71612;44.776;20.472;2023-09-07T00:54:02;100396.00;;;28.10;38.49
82041;BME280;71612;44.776;20.472;2023-09-07T00:56:28;100391.28;;;28.10;38.86
82041;BME280;71612;44.776;20.472;2023-09-07T00:58:54;100388.06;;;28.08;38.49
82041;BME280;71612;44.776;20.472;2023-09-07T01:01:22;100388.41;;;28.07;38.30
82041;BME280;71612;44.776;20.472;2023-09-07T01:03:49;100399.22;;;28.12;38.63
82041;BME280;71612;44.776;20.472;2023-09-07T01:06:22;100401.16;;;28.11;38.35
82041;BME280;71612;44.776;20.472;2023-09-07T01:08:51;100391.97;;;28.07;38.52
82041;BME280;71612;44.776;20.472;2023-09-07T01:11:18;100391.28;;;28.10;38.63
82041;BME280;71612;44.776;20.472;2023-09-07T01:13:51;100384.53;;;28.08;38.50
82041;BME280;71612;44.776;20.472;2023-09-07T01:16:21;100382.09;;;28.06;38.56
82041;BME280;71612;44.776;20.472;2023-09-07T01:18:47;100372.78;;;27.99;38.80
82041;BME280;71612;44.776;20.472;2023-09-07T01:21:13;100377.13;;;28.00;38.74
82041;BME280;71612;44.776;20.472;2023-09-07T01:23:41;100386.00;;;28.05;38.43
82041;BME280;71612;44.776;20.472;2023-09-07T01:26:08;100371.63;;;28.00;38.25
82041;BME280;71612;44.776;20.472;2023-09-07T01:28:35;100379.38;;;28.06;38.19
82041;BME280;71612;44.776;20.472;2023-09-07T01:31:01;100380.50;;;28.05;38.56
82041;BME280;71612;44.776;20.472;2023-09-07T01:33:27;100381.63;;;28.04;38.69
82041;BME280;71612;44.776;20.472;2023-09-07T01:35:52;100382.78;;;28.03;38.80
82041;BME280;71612;44.776;20.472;2023-09-07T01:38:18;100372.28;;;27.97;38.78
82041;BME280;71612;44.776;20.472;2023-09-07T01:40:44;100381.16;;;28.02;38.75
82041;BME280;71612;44.776;20.472;2023-09-07T01:43:13;100375.03;;;27.97;38.72
82041;BME280;71612;44.776;20.472;2023-09-07T01:45:38;100379.56;;;28.01;38.55
82041;BME280;71612;44.776;20.472;2023-09-07T01:48:08;100363.88;;;27.93;38.68
82041;BME280;71612;44.776;20.472;2023-09-07T01:50:35;100385.53;;;28.03;38.71
82041;BME280;71612;44.776;20.472;2023-09-07T01:53:00;100373.59;;;27.90;38.63
82041;BME280;71612;44.776;20.472;2023-09-07T01:55:28;100386.50;;;27.99;38.50
82041;BME280;71612;44.776;20.472;2023-09-07T01:57:53;100383.41;;;28.00;38.95
82041;BME280;71612;44.776;20.472;2023-09-07T02:00:19;100368.25;;;27.94;38.70
82041;BME280;71612;44.776;20.472;2023-09-07T02:02:44;100390.84;;;28.00;39.16
82041;BME280;71612;44.776;20.472;2023-09-07T02:05:10;100381.00;;;27.99;38.83
82041;BME280;71612;44.776;20.472;2023-09-07T02:07:35;100382.13;;;27.98;38.73
82041;BME280;71612;44.776;20.472;2023-09-07T02:10:02;100376.94;;;27.96;38.58
82041;BME280;71612;44.776;20.472;2023-09-07T02:12:28;100378.06;;;27.95;38.50
82041;BME280;71612;44.776;20.472;2023-09-07T02:14:55;100383.88;;;27.93;38.85
82041;BME280;71612;44.776;20.472;2023-09-07T02:17:20;100371.97;;;27.89;38.58
82041;BME280;71612;44.776;20.472;2023-09-07T02:19:46;100375.66;;;27.93;38.52
82041;BME280;71612;44.776;20.472;2023-09-07T02:22:11;100373.41;;;27.87;38.40
82041;BME280;71612;44.776;20.472;2023-09-07T02:24:37;100387.78;;;27.92;38.70
82041;BME280;71612;44.776;20.472;2023-09-07T02:27:02;100395.19;;;27.92;38.66
82041;BME280;71612;44.776;20.472;2023-09-07T02:29:28;100378.75;;;27.83;38.45
82041;BME280;71612;44.776;20.472;2023-09-07T02:31:53;100388.91;;;27.91;38.55
82041;BME280;71612;44.776;20.472;2023-09-07T02:34:19;100391.50;;;27.88;39.00
82041;BME280;71612;44.776;20.472;2023-09-07T02:36:44;100391.03;;;27.86;38.60
82041;BME280;71612;44.776;20.472;2023-09-07T02:39:10;100376.66;;;27.80;38.83
82041;BME280;71612;44.776;20.472;2023-09-07T02:41:37;100393.44;;;27.87;38.57
82041;BME280;71612;44.776;20.472;2023-09-07T02:44:03;100384.88;;;27.80;38.59
82041;BME280;71612;44.776;20.472;2023-09-07T02:46:28;100364.59;;;27.73;38.56
82041;BME280;71612;44.776;20.472;2023-09-07T02:48:53;100378.09;;;27.78;38.70
82041;BME280;71612;44.776;20.472;2023-09-07T02:51:22;100386.34;;;27.78;38.74
82041;BME280;71612;44.776;20.472;2023-09-07T02:53:48;100385.56;;;27.77;38.74
82041;BME280;71612;44.776;20.472;2023-09-07T02:56:13;100396.81;;;27.84;38.33
82041;BME280;71612;44.776;20.472;2023-09-07T02:58:38;100402.63;;;27.83;38.57
82041;BME280;71612;44.776;20.472;2023-09-07T03:01:08;100405.69;;;27.81;38.40
82041;BME280;71612;44.776;20.472;2023-09-07T03:03:37;100415.53;;;27.82;39.20
82041;BME280;71612;44.776;20.472;2023-09-07T03:06:10;100419.88;;;27.83;38.50
82041;BME280;71612;44.776;20.472;2023-09-07T03:08:36;100403.75;;;27.73;38.69
82041;BME280;71612;44.776;20.472;2023-09-07T03:11:05;100415.84;;;27.81;38.49
82041;BME280;71612;44.776;20.472;2023-09-07T03:13:31;100416.66;;;27.81;38.66
82041;BME280;71612;44.776;20.472;2023-09-07T03:15:57;100411.81;;;27.78;38.70
82041;BME280;71612;44.776;20.472;2023-09-07T03:18:23;100414.09;;;27.76;38.85
82041;BME280;71612;44.776;20.472;2023-09-07T03:20:50;100421.34;;;27.81;38.71
82041;BME280;71612;44.776;20.472;2023-09-07T03:23:16;100422.44;;;27.80;38.47
82041;BME280;71612;44.776;20.472;2023-09-07T03:25:42;100423.59;;;27.79;38.36
82041;BME280;71612;44.776;20.472;2023-09-07T03:28:07;100418.94;;;27.71;38.70
82041;BME280;71612;44.776;20.472;2023-09-07T03:30:33;100430.69;;;27.80;38.53
82041;BME280;71612;44.776;20.472;2023-09-07T03:32:58;100411.97;;;27.73;38.91
82041;BME280;71612;44.776;20.472;2023-09-07T03:35:24;100429.91;;;27.79;38.81
82041;BME280;71612;44.776;20.472;2023-09-07T03:37:49;100399.75;;;27.62;38.89
82041;BME280;71612;44.776;20.472;2023-09-07T03:40:15;100420.84;;;27.79;38.81
82041;BME280;71612;44.776;20.472;2023-09-07T03:42:40;100424.72;;;27.78;38.73
82041;BME280;71612;44.776;20.472;2023-09-07T03:45:07;100423.94;;;27.77;38.81
82041;BME280;71612;44.776;20.472;2023-09-07T03:47:32;100430.19;;;27.78;38.65
82041;BME280;71612;44.776;20.472;2023-09-07T03:49:58;100418.94;;;27.71;38.57
82041;BME280;71612;44.776;20.472;2023-09-07T03:52:24;100433.28;;;27.76;39.23
82041;BME280;71612;44.776;20.472;2023-09-07T03:54:53;100425.69;;;27.73;39.19
82041;BME280;71612;44.776;20.472;2023-09-07T03:57:19;100422.31;;;27.68;38.64
82041;BME280;71612;44.776;20.472;2023-09-07T03:59:45;100436.34;;;27.75;38.74
82041;BME280;71612;44.776;20.472;2023-09-07T04:02:11;100437.47;;;27.74;38.73
82041;BME280;71612;44.776;20.472;2023-09-07T04:04:37;100437.47;;;27.74;38.85
82041;BME280;71612;44.776;20.472;2023-09-07T04:07:03;100433.91;;;27.73;38.91
82041;BME280;71612;44.776;20.472;2023-09-07T04:09:28;100440.69;;;27.76;39.02
82041;BME280;71612;44.776;20.472;2023-09-07T04:11:54;100433.59;;;27.75;38.81
82041;BME280;71612;44.776;20.472;2023-09-07T04:14:19;100442.66;;;27.75;38.81
82041;BME280;71612;44.776;20.472;2023-09-07T04:16:45;100431.84;;;27.70;39.18
82041;BME280;71612;44.776;20.472;2023-09-07T04:19:10;100427.66;;;27.64;38.94
82041;BME280;71612;44.776;20.472;2023-09-07T04:21:36;100448.75;;;27.72;38.87
82041;BME280;71612;44.776;20.472;2023-09-07T04:24:02;100453.09;;;27.73;38.96
82041;BME280;71612;44.776;20.472;2023-09-07T04:26:27;100452.31;;;27.73;39.47
82041;BME280;71612;44.776;20.472;2023-09-07T04:28:54;100449.09;;;27.71;39.02
82041;BME280;71612;44.776;20.472;2023-09-07T04:31:19;100444.56;;;27.66;38.98
82041;BME280;71612;44.776;20.472;2023-09-07T04:33:46;100443.28;;;27.64;39.11
82041;BME280;71612;44.776;20.472;2023-09-07T04:36:13;100461.19;;;27.70;39.12
82041;BME280;71612;44.776;20.472;2023-09-07T04:38:39;100467.13;;;27.72;39.23
82041;BME280;71612;44.776;20.472;2023-09-07T04:41:08;100459.72;;;27.72;38.88
82041;BME280;71612;44.776;20.472;2023-09-07T04:43:34;100464.72;;;27.70;39.19
82041;BME280;71612;44.776;20.472;2023-09-07T04:46:00;100456.84;;;27.69;39.13
82041;BME280;71612;44.776;20.472;2023-09-07T04:48:25;100449.09;;;27.62;39.01
82041;BME280;71612;44.776;20.472;2023-09-07T04:50:59;100467.13;;;27.72;38.85
82041;BME280;71612;44.776;20.472;2023-09-07T04:53:24;100464.25;;;27.68;39.05
82041;BME280;71612;44.776;20.472;2023-09-07T04:55:50;100471.03;;;27.71;38.77
82041;BME280;71612;44.776;20.472;2023-09-07T04:58:15;100469.72;;;27.68;39.07
82041;BME280;71612;44.776;20.472;2023-09-07T05:00:41;100473.09;;;27.65;38.73
82041;BME280;71612;44.776;20.472;2023-09-07T05:03:06;100466.03;;;27.64;38.67
82041;BME280;71612;44.776;20.472;2023-09-07T05:05:31;100474.72;;;27.66;39.30
82041;BME280;71612;44.776;20.472;2023-09-07T05:07:57;100475.03;;;27.65;38.70
82041;BME280;71612;44.776;20.472;2023-09-07T05:10:22;100467.47;;;27.62;39.15
82041;BME280;71612;44.776;20.472;2023-09-07T05:12:47;100475.84;;;27.65;38.70
82041;BME280;71612;44.776;20.472;2023-09-07T05:15:13;100465.22;;;27.55;39.25
82041;BME280;71612;44.776;20.472;2023-09-07T05:17:38;100482.78;;;27.63;38.87
82041;BME280;71612;44.776;20.472;2023-09-07T05:20:04;100463.44;;;27.51;38.99
82041;BME280;71612;44.776;20.472;2023-09-07T05:22:30;100488.25;;;27.63;39.02
82041;BME280;71612;44.776;20.472;2023-09-07T05:24:56;100487.47;;;27.62;38.89
82041;BME280;71612;44.776;20.472;2023-09-07T05:27:21;100488.44;;;27.58;39.16
82041;BME280;71612;44.776;20.472;2023-09-07T05:29:47;100478.91;;;27.55;39.31
82041;BME280;71612;44.776;20.472;2023-09-07T05:32:12;100496.81;;;27.61;39.11
82041;BME280;71612;44.776;20.472;2023-09-07T05:34:38;100487.47;;;27.54;39.00
82041;BME280;71612;44.776;20.472;2023-09-07T05:37:03;100495.03;;;27.57;38.88
82041;BME280;71612;44.776;20.472;2023-09-07T05:39:29;100483.72;;;27.50;38.89
82041;BME280;71612;44.776;20.472;2023-09-07T05:41:54;100503.44;;;27.60;39.43
82041;BME280;71612;44.776;20.472;2023-09-07T05:44:19;100479.53;;;27.44;39.14
82041;BME280;71612;44.776;20.472;2023-09-07T05:46:45;100486.47;;;27.50;38.50
82041;BME280;71612;44.776;20.472;2023-09-07T05:49:10;100469.88;;;27.38;38.96
82041;BME280;71612;44.776;20.472;2023-09-07T05:51:36;100507.44;;;27.54;38.47
82041;BME280;71612;44.776;20.472;2023-09-07T05:54:01;100503.91;;;27.54;38.63
82041;BME280;71612;44.776;20.472;2023-09-07T05:56:26;100495.69;;;27.45;37.90
82041;BME280;71612;44.776;20.472;2023-09-07T05:58:52;100504.22;;;27.52;38.47
82041;BME280;71612;44.776;20.472;2023-09-07T06:01:17;100513.56;;;27.51;37.96
82041;BME280;71612;44.776;20.472;2023-09-07T06:03:43;100498.91;;;27.47;38.14
82041;BME280;71612;44.776;20.472;2023-09-07T06:06:09;100510.66;;;27.48;38.10
82041;BME280;71612;44.776;20.472;2023-09-07T06:08:34;100511.59;;;27.43;38.17
82041;BME280;71612;44.776;20.472;2023-09-07T06:11:00;100509.88;;;27.47;38.08
82041;BME280;71612;44.776;20.472;2023-09-07T06:13:26;100514.53;;;27.47;38.20
82041;BME280;71612;44.776;20.472;2023-09-07T06:15:51;100508.72;;;27.48;38.21
82041;BME280;71612;44.776;20.472;2023-09-07T06:18:17;100509.53;;;27.49;38.18
82041;BME280;71612;44.776;20.472;2023-09-07T06:20:42;100504.53;;;27.42;38.13
82041;BME280;71612;44.776;20.472;2023-09-07T06:23:08;100516.47;;;27.46;37.80
82041;BME280;71612;44.776;20.472;2023-09-07T06:25:33;100522.44;;;27.48;37.65
82041;BME280;71612;44.776;20.472;2023-09-07T06:27:58;100508.56;;;27.45;38.08
82041;BME280;71612;44.776;20.472;2023-09-07T06:30:24;100516.63;;;27.50;37.67
82041;BME280;71612;44.776;20.472;2023-09-07T06:32:49;100503.09;;;27.45;37.91
82041;BME280;71612;44.776;20.472;2023-09-07T06:35:16;100521.78;;;27.51;37.87
82041;BME280;71612;44.776;20.472;2023-09-07T06:37:43;100509.88;;;27.47;37.74
82041;BME280;71612;44.776;20.472;2023-09-07T06:40:09;100522.09;;;27.50;37.82
82041;BME280;71612;44.776;20.472;2023-09-07T06:42:35;100516.47;;;27.46;37.29
82041;BME280;71612;44.776;20.472;2023-09-07T06:45:00;100515.50;;;27.42;38.01
82041;BME280;71612;44.776;20.472;2023-09-07T06:47:26;100514.19;;;27.48;37.86
82041;BME280;71612;44.776;20.472;2023-09-07T06:49:51;100532.56;;;27.48;38.39
82041;BME280;71612;44.776;20.472;2023-09-07T06:52:16;100521.13;;;27.46;38.22
82041;BME280;71612;44.776;20.472;2023-09-07T06:54:42;100525.16;;;27.48;38.24
82041;BME280;71612;44.776;20.472;2023-09-07T06:57:07;100521.94;;;27.46;38.93
82041;BME280;71612;44.776;20.472;2023-09-07T06:59:33;100525.31;;;27.43;38.79
82041;BME280;71612;44.776;20.472;2023-09-07T07:01:59;100534.66;;;27.42;39.05
82041;BME280;71612;44.776;20.472;2023-09-07T07:04:26;100545.16;;;27.49;38.56
82041;BME280;71612;44.776;20.472;2023-09-07T07:06:51;100542.41;;;27.49;38.47
82041;BME280;71612;44.776;20.472;2023-09-07T07:09:17;100532.09;;;27.46;38.07
82041;BME280;71612;44.776;20.472;2023-09-07T07:11:42;100541.28;;;27.50;37.97
82041;BME280;71612;44.776;20.472;2023-09-07T07:14:08;100528.56;;;27.45;37.84
82041;BME280;71612;44.776;20.472;2023-09-07T07:16:35;100543.25;;;27.49;38.41
82041;BME280;71612;44.776;20.472;2023-09-07T07:19:01;100523.38;;;27.44;38.41
82041;BME280;71612;44.776;20.472;2023-09-07T07:21:26;100543.25;;;27.49;38.50
82041;BME280;71612;44.776;20.472;2023-09-07T07:23:51;100531.31;;;27.45;38.34
82041;BME280;71612;44.776;20.472;2023-09-07T07:26:17;100549.03;;;27.56;38.55
82041;BME280;71612;44.776;20.472;2023-09-07T07:28:42;100543.56;;;27.56;38.01
82041;BME280;71612;44.776;20.472;2023-09-07T07:31:09;100545.19;;;27.57;38.06
82041;BME280;71612;44.776;20.472;2023-09-07T07:33:35;100550.66;;;27.57;37.96
82041;BME280;71612;44.776;20.472;2023-09-07T07:36:00;100540.50;;;27.58;38.08
82041;BME280;71612;44.776;20.472;2023-09-07T07:38:26;100545.34;;;27.61;37.93
82041;BME280;71612;44.776;20.472;2023-09-07T07:40:51;100542.59;;;27.61;37.96
82041;BME280;71612;44.776;20.472;2023-09-07T07:43:18;100535.97;;;27.53;38.23
82041;BME280;71612;44.776;20.472;2023-09-07T07:45:44;100529.06;;;27.56;38.17
82041;BME280;71612;44.776;20.472;2023-09-07T07:48:09;100544.38;;;27.65;38.37
82041;BME280;71612;44.776;20.472;2023-09-07T07:50:38;100546.97;;;27.70;38.74
82041;BME280;71612;44.776;20.472;2023-09-07T07:53:07;100541.00;;;27.68;38.35
82041;BME280;71612;44.776;20.472;2023-09-07T07:55:36;100538.41;;;27.72;38.46
82041;BME280;71612;44.776;20.472;2023-09-07T07:58:05;100536.34;;;27.77;38.98
82041;BME280;71612;44.776;20.472;2023-09-07T08:00:33;100543.44;;;27.78;39.07
82041;BME280;71612;44.776;20.472;2023-09-07T08:02:58;100547.63;;;27.76;38.97
82041;BME280;71612;44.776;20.472;2023-09-07T08:05:24;100521.16;;;27.63;38.96
82041;BME280;71612;44.776;20.472;2023-09-07T08:07:49;100543.44;;;27.78;38.74
82041;BME280;71612;44.776;20.472;2023-09-07T08:10:18;100528.41;;;27.76;38.98
82041;BME280;71612;44.776;20.472;2023-09-07T08:12:43;100542.13;;;27.84;38.50
82041;BME280;71612;44.776;20.472;2023-09-07T08:15:09;100548.28;;;27.81;38.90
82041;BME280;71612;44.776;20.472;2023-09-07T08:17:35;100539.25;;;27.89;38.36
82041;BME280;71612;44.776;20.472;2023-09-07T08:20:01;100550.84;;;27.95;38.85
82041;BME280;71612;44.776;20.472;2023-09-07T08:22:26;100536.97;;;27.91;38.53
82041;BME280;71612;44.776;20.472;2023-09-07T08:24:54;100551.22;;;28.02;38.40
82041;BME280;71612;44.776;20.472;2023-09-07T08:27:19;100560.41;;;28.06;38.48
82041;BME280;71612;44.776;20.472;2023-09-07T08:29:45;100546.06;;;28.09;38.97
82041;BME280;71612;44.776;20.472;2023-09-07T08:32:17;100552.34;;;28.10;38.65
82041;BME280;71612;44.776;20.472;2023-09-07T08:34:42;100552.34;;;28.10;38.40
82041;BME280;71612;44.776;20.472;2023-09-07T08:37:08;100545.41;;;28.12;38.60
82041;BME280;71612;44.776;20.472;2023-09-07T08:39:36;100541.19;;;28.15;38.28
82041;BME280;71612;44.776;20.472;2023-09-07T08:42:05;100538.16;;;28.16;38.39
82041;BME280;71612;44.776;20.472;2023-09-07T08:44:32;100549.75;;;28.22;38.38
82041;BME280;71612;44.776;20.472;2023-09-07T08:47:02;100534.59;;;28.16;38.11
82041;BME280;71612;44.776;20.472;2023-09-07T08:49:29;100540.69;;;28.21;38.23
82041;BME280;71612;44.776;20.472;2023-09-07T08:51:58;100541.34;;;28.27;38.25
82041;BME280;71612;44.776;20.472;2023-09-07T08:54:24;100535.22;;;28.21;38.01
82041;BME280;71612;44.776;20.472;2023-09-07T08:56:50;100537.97;;;28.21;38.06
82041;BME280;71612;44.776;20.472;2023-09-07T08:59:15;100538.28;;;28.28;37.92
82041;BME280;71612;44.776;20.472;2023-09-07T09:01:41;100533.59;;;28.29;38.02
82041;BME280;71612;44.776;20.472;2023-09-07T09:04:07;100543.28;;;28.35;37.74
82041;BME280;71612;44.776;20.472;2023-09-07T09:06:32;100546.50;;;28.37;38.14
82041;BME280;71612;44.776;20.472;2023-09-07T09:08:59;100542.63;;;28.38;37.83
82041;BME280;71612;44.776;20.472;2023-09-07T09:11:25;100539.22;;;28.41;37.48
82041;BME280;71612;44.776;20.472;2023-09-07T09:13:53;100534.41;;;28.38;37.72
82041;BME280;71612;44.776;20.472;2023-09-07T09:16:19;100532.78;;;28.37;37.29
82041;BME280;71612;44.776;20.472;2023-09-07T09:21:27;100539.25;;;27.81;31.22
82041;BME280;71612;44.776;20.472;2023-09-07T09:23:54;100523.75;;;27.59;29.80
82041;BME280;71612;44.776;20.472;2023-09-07T09:26:23;100499.94;;;27.20;29.12
82041;BME280;71612;44.776;20.472;2023-09-07T09:28:49;100529.72;;;27.13;28.14
82041;BME280;71612;44.776;20.472;2023-09-07T09:31:16;100522.69;;;26.82;27.71
82041;BME280;71612;44.776;20.472;2023-09-07T09:33:42;100531.09;;;26.63;27.38
82041;BME280;71612;44.776;20.472;2023-09-07T09:36:12;100527.94;;;26.48;28.00
82041;BME280;71612;44.776;20.472;2023-09-07T09:38:38;100525.59;;;26.32;27.19
82041;BME280;71612;44.776;20.472;2023-09-07T09:41:06;100526.19;;;26.29;28.60
82041;BME280;71612;44.776;20.472;2023-09-07T09:43:33;100532.66;;;26.33;31.92
82041;BME280;71612;44.776;20.472;2023-09-07T09:45:59;100526.78;;;26.18;29.93
82041;BME280;71612;44.776;20.472;2023-09-07T09:48:27;100515.47;;;25.97;28.76
82041;BME280;71612;44.776;20.472;2023-09-07T09:50:52;100507.03;;;25.85;28.89
82041;BME280;71612;44.776;20.472;2023-09-07T09:53:19;100520.38;;;25.87;31.94
82041;BME280;71612;44.776;20.472;2023-09-07T09:55:47;100511.28;;;25.78;32.55
82041;BME280;71612;44.776;20.472;2023-09-07T09:58:13;100526.16;;;25.85;36.83
82041;BME280;71612;44.776;20.472;2023-09-07T10:00:43;100506.81;;;25.82;33.74
82041;BME280;71612;44.776;20.472;2023-09-07T10:03:20;100520.69;;;25.85;38.05
82041;BME280;71612;44.776;20.472;2023-09-07T10:05:49;100520.63;;;25.77;33.18
82041;BME280;71612;44.776;20.472;2023-09-07T10:08:18;100514.88;;;25.64;32.80
82041;BME280;71612;44.776;20.472;2023-09-07T10:10:46;100511.34;;;25.64;37.30
82041;BME280;71612;44.776;20.472;2023-09-07T10:13:14;100516.19;;;25.67;38.27
82041;BME280;71612;44.776;20.472;2023-09-07T10:15:40;100508.19;;;25.70;35.97
82041;BME280;71612;44.776;20.472;2023-09-07T10:20:56;100492.72;;;25.66;36.93
82041;BME280;71612;44.776;20.472;2023-09-07T10:23:23;100498.56;;;25.73;37.41
82041;BME280;71612;44.776;20.472;2023-09-07T10:25:59;100500.19;;;25.74;38.01
82041;BME280;71612;44.776;20.472;2023-09-07T10:28:25;100497.06;;;25.67;35.43
82041;BME280;71612;44.776;20.472;2023-09-07T10:30:58;100489.34;;;25.69;39.50
82041;BME280;71612;44.776;20.472;2023-09-07T10:33:24;100486.13;;;25.67;39.27
82041;BME280;71612;44.776;20.472;2023-09-07T10:35:49;100487.13;;;25.71;38.23
82041;BME280;71612;44.776;20.472;2023-09-07T10:38:15;100499.38;;;25.73;36.80
82041;BME280;71612;44.776;20.472;2023-09-07T10:40:44;100493.31;;;25.77;38.89
82041;BME280;71612;44.776;20.472;2023-09-07T10:43:09;100478.75;;;25.67;36.71
82041;BME280;71612;44.776;20.472;2023-09-07T10:45:36;100475.34;;;25.84;38.43
82041;BME280;71612;44.776;20.472;2023-09-07T10:48:02;100479.00;;;26.02;37.87
82041;BME280;71612;44.776;20.472;2023-09-07T10:50:29;100484.81;;;26.22;37.60
82041;BME280;71612;44.776;20.472;2023-09-07T10:52:55;100477.84;;;26.38;37.10
82041;BME280;71612;44.776;20.472;2023-09-07T10:55:21;100476.63;;;26.53;37.09
82041;BME280;71612;44.776;20.472;2023-09-07T10:57:47;100473.47;;;26.68;37.29
82041;BME280;71612;44.776;20.472;2023-09-07T11:00:14;100477.94;;;26.86;37.01
82041;BME280;71612;44.776;20.472;2023-09-07T11:02:41;100477.97;;;26.95;37.29
82041;BME280;71612;44.776;20.472;2023-09-07T11:05:07;100466.41;;;27.06;37.60
82041;BME280;71612;44.776;20.472;2023-09-07T11:07:33;100467.22;;;27.15;37.06
82041;BME280;71612;44.776;20.472;2023-09-07T11:09:59;100455.00;;;27.22;37.13
82041;BME280;71612;44.776;20.472;2023-09-07T11:12:24;100451.28;;;27.35;37.31
82041;BME280;71612;44.776;20.472;2023-09-07T11:14:51;100462.13;;;27.48;37.23
82041;BME280;71612;44.776;20.472;2023-09-07T11:17:17;100452.47;;;27.51;37.38
82041;BME280;71612;44.776;20.472;2023-09-07T11:19:43;100464.59;;;27.67;37.50
82041;BME280;71612;44.776;20.472;2023-09-07T11:22:11;100457.00;;;27.72;37.55
82041;BME280;71612;44.776;20.472;2023-09-07T11:24:37;100467.00;;;27.77;37.33
82041;BME280;71612;44.776;20.472;2023-09-07T11:27:03;100449.72;;;27.76;37.23
82041;BME280;71612;44.776;20.472;2023-09-07T11:29:31;100460.06;;;27.88;37.39
82041;BME280;71612;44.776;20.472;2023-09-07T11:32:08;100458.91;;;27.98;37.67
82041;BME280;71612;44.776;20.472;2023-09-07T11:34:34;100439.06;;;27.92;37.64
82041;BME280;71612;44.776;20.472;2023-09-07T11:37:02;100448.59;;;28.03;37.80
82041;BME280;71612;44.776;20.472;2023-09-07T11:39:28;100447.94;;;28.06;37.53
82041;BME280;71612;44.776;20.472;2023-09-07T11:41:54;100438.44;;;28.12;37.55
82041;BME280;71612;44.776;20.472;2023-09-07T11:44:20;100448.22;;;28.22;37.66
82041;BME280;71612;44.776;20.472;2023-09-07T11:46:45;100453.09;;;28.25;37.19
82041;BME280;71612;44.776;20.472;2023-09-07T11:49:11;100455.31;;;28.31;37.40
82041;BME280;71612;44.776;20.472;2023-09-07T11:51:37;100436.72;;;28.37;37.10
82041;BME280;71612;44.776;20.472;2023-09-07T11:54:02;100442.22;;;28.37;37.78
82041;BME280;71612;44.776;20.472;2023-09-07T11:56:28;100428.63;;;28.40;37.89
82041;BME280;71612;44.776;20.472;2023-09-07T11:58:54;100432.16;;;28.49;37.67
82041;BME280;71612;44.776;20.472;2023-09-07T12:01:20;100435.06;;;28.53;37.86
82041;BME280;71612;44.776;20.472;2023-09-07T12:03:46;100437.13;;;28.56;37.75
82041;BME280;71612;44.776;20.472;2023-09-07T12:06:13;100434.25;;;28.61;37.29
82041;BME280;71612;44.776;20.472;2023-09-07T12:08:42;100412.13;;;28.57;38.17
82041;BME280;71612;44.776;20.472;2023-09-07T12:11:08;100419.19;;;28.67;37.82
82041;BME280;71612;44.776;20.472;2023-09-07T12:13:33;100421.44;;;28.74;37.56
82041;BME280;71612;44.776;20.472;2023-09-07T12:15:59;100417.88;;;28.73;37.22
82041;BME280;71612;44.776;20.472;2023-09-07T12:18:26;100414.59;;;28.80;37.43
82041;BME280;71612;44.776;20.472;2023-09-07T12:20:51;100412.81;;;28.84;37.23
82041;BME280;71612;44.776;20.472;2023-09-07T12:23:17;100423.59;;;28.89;37.29
82041;BME280;71612;44.776;20.472;2023-09-07T12:25:42;100394.72;;;28.83;37.48
82041;BME280;71612;44.776;20.472;2023-09-07T12:28:09;100403.09;;;28.86;37.58
82041;BME280;71612;44.776;20.472;2023-09-07T12:30:34;100406.78;;;28.90;37.19
82041;BME280;71612;44.776;20.472;2023-09-07T12:32:59;100418.53;;;28.99;37.18
82041;BME280;71612;44.776;20.472;2023-09-07T12:35:25;100404.00;;;28.99;37.39
82041;BME280;71612;44.776;20.472;2023-09-07T12:37:50;100417.53;;;29.04;37.23
82041;BME280;71612;44.776;20.472;2023-09-07T12:40:16;100396.75;;;28.94;37.59